Time;durP1;ratioP1;P1;durP2;ratioP2;P2;SDS_P1;SDS_P2;PMS_P1;PMS_P2;Temp;Humidity;BMP_temperature;BMP_pressure;BME280_temperature;BME280_humidity;BME280_pressure;Samples;Min_cycle;Max_cycle;Signal;HPM_P1;HPM_P2
2023/05/26 00:00:18;;;;;;;6.03;3.63;;;14.30;99.90;;;;;;5031557;28;20049;-75
2023/05/26 00:02:45;;;;;;;7.70;4.28;;;14.30;99.90;;;;;;5013852;28;20028;-75
2023/05/26 00:05:12;;;;;;;9.25;4.25;;;14.30;99.90;;;;;;5013550;28;20021;-75
2023/05/26 00:07:40;;;;;;;6.38;4.43;;;14.20;99.90;;;;;;5031607;28;20026;-75
2023/05/26 00:10:09;;;;;;;6.15;4.10;;;14.20;99.90;;;;;;5031751;28;20029;-75
2023/05/26 00:12:35;;;;;;;6.88;3.70;;;14.20;99.90;;;;;;5031796;28;20029;-76
2023/05/26 00:15:01;;;;;;;5.30;3.40;;;14.10;99.90;;;;;;5013815;28;20397;-76
2023/05/26 00:17:27;;;;;;;6.35;4.28;;;14.10;99.90;;;;;;5031587;28;20021;-75
2023/05/26 00:19:52;;;;;;;10.32;4.38;;;14.10;99.90;;;;;;5013792;28;20029;-75
2023/05/26 00:22:19;;;;;;;5.70;3.90;;;14.10;99.90;;;;;;5031529;28;20029;-75
2023/05/26 00:24:46;;;;;;;5.22;3.95;;;14.00;99.90;;;;;;5013654;28;20552;-75
2023/05/26 00:27:12;;;;;;;4.88;3.63;;;14.10;99.90;;;;;;5013744;28;20117;-75
2023/05/26 00:29:38;;;;;;;6.90;4.25;;;14.10;99.90;;;;;;5031492;28;20550;-75
2023/05/26 00:32:04;;;;;;;7.35;4.28;;;14.00;99.90;;;;;;5013753;28;20163;-75
2023/05/26 00:34:30;;;;;;;10.50;4.45;;;14.00;99.90;;;;;;5031314;28;20131;-75
2023/05/26 00:36:56;;;;;;;5.72;4.82;;;13.90;99.90;;;;;;5030804;28;20037;-76
2023/05/26 00:39:21;;;;;;;9.95;4.20;;;13.90;99.90;;;;;;5013599;28;20448;-75
2023/05/26 00:41:48;;;;;;;12.07;4.35;;;13.90;99.90;;;;;;5031551;28;20044;-75
2023/05/26 00:44:14;;;;;;;6.95;4.63;;;13.80;99.90;;;;;;5031386;28;20018;-75
2023/05/26 00:46:40;;;;;;;7.38;4.28;;;13.80;99.90;;;;;;5013460;28;20133;-76
2023/05/26 00:49:06;;;;;;;6.25;4.38;;;13.70;99.90;;;;;;5013354;28;20071;-76
2023/05/26 00:51:32;;;;;;;6.47;4.07;;;13.70;99.90;;;;;;5031436;28;20096;-75
2023/05/26 00:53:59;;;;;;;7.15;4.35;;;13.60;99.90;;;;;;5031199;28;20171;-76
2023/05/26 00:56:27;;;;;;;12.25;4.28;;;13.60;99.90;;;;;;5013554;28;20017;-76
2023/05/26 00:58:54;;;;;;;4.30;3.90;;;13.60;99.90;;;;;;5031080;28;20475;-75
2023/05/26 01:01:19;;;;;;;4.45;3.90;;;13.50;99.90;;;;;;5031343;28;20025;-75
2023/05/26 01:03:47;;;;;;;4.57;3.53;;;13.50;99.90;;;;;;5013430;28;20398;-75
2023/05/26 01:06:13;;;;;;;8.40;4.32;;;13.50;99.90;;;;;;5032191;28;20053;-75
2023/05/26 01:08:38;;;;;;;6.28;4.10;;;13.50;99.90;;;;;;5034871;28;20490;-75
2023/05/26 01:11:16;;;;;;;5.63;3.70;;;13.50;99.90;;;;;;5034984;28;20021;-75
2023/05/26 01:14:07;;;;;;;10.02;4.85;;;13.50;99.90;;;;;;5034794;28;20030;-75
2023/05/26 01:16:56;;;;;;;4.47;3.72;;;13.40;99.90;;;;;;5023810;28;20034;-76
2023/05/26 01:20:00;;;;;;;5.50;4.10;;;13.40;99.90;;;;;;5017154;28;20505;-76
2023/05/26 01:23:09;;;;;;;6.80;4.43;;;13.40;99.90;;;;;;5034703;28;20025;-75
2023/05/26 01:25:58;;;;;;;7.70;5.53;;;13.30;99.90;;;;;;5033854;28;20040;-76
2023/05/26 01:28:29;;;;;;;6.05;4.82;;;13.30;99.90;;;;;;5034484;28;20030;-76
2023/05/26 01:30:57;;;;;;;8.63;3.88;;;13.20;99.90;;;;;;5034642;28;20526;-76
2023/05/26 01:33:23;;;;;;;5.97;4.15;;;13.30;99.90;;;;;;5034453;28;20030;-75
2023/05/26 01:35:48;;;;;;;4.35;3.92;;;13.30;99.90;;;;;;5034357;28;20707;-76
2023/05/26 01:38:14;;;;;;;5.70;4.28;;;13.10;99.90;;;;;;5016147;28;20029;-75
2023/05/26 01:40:44;;;;;;;7.13;4.80;;;13.10;99.90;;;;;;5016556;28;20117;-76
2023/05/26 01:43:47;;;;;;;6.97;4.13;;;13.10;99.90;;;;;;5034258;28;20044;-75
2023/05/26 01:46:30;;;;;;;10.38;4.63;;;13.20;99.90;;;;;;5016584;28;20466;-75
2023/05/26 01:48:58;;;;;;;6.30;4.07;;;13.10;99.90;;;;;;5034187;28;20022;-75
2023/05/26 01:51:26;;;;;;;4.50;4.07;;;13.00;99.90;;;;;;5016363;28;20482;-75
2023/05/26 01:53:55;;;;;;;4.80;3.67;;;13.00;99.90;;;;;;5034160;28;20028;-75
2023/05/26 01:56:23;;;;;;;6.80;4.35;;;13.00;99.90;;;;;;5033960;28;20382;-75
2023/05/26 01:58:51;;;;;;;7.65;3.90;;;13.00;99.90;;;;;;5033873;28;20048;-75
2023/05/26 02:01:17;;;;;;;8.63;3.97;;;13.00;99.90;;;;;;5033649;28;20025;-75
2023/05/26 02:03:43;;;;;;;5.70;4.28;;;13.00;99.90;;;;;;5033914;28;20021;-75
2023/05/26 02:06:09;;;;;;;6.60;4.80;;;13.00;99.90;;;;;;5033761;28;20017;-75
2023/05/26 02:08:37;;;;;;;10.00;5.63;;;13.00;99.90;;;;;;5015893;28;20036;-75
2023/05/26 02:11:02;;;;;;;8.90;5.45;;;13.00;99.90;;;;;;5033928;28;20490;-75
2023/05/26 02:13:28;;;;;;;11.93;5.60;;;13.00;99.90;;;;;;5033724;28;20044;-75
2023/05/26 02:15:54;;;;;;;9.32;5.57;;;13.00;99.90;;;;;;5033743;28;20026;-75
2023/05/26 02:18:21;;;;;;;10.55;4.72;;;13.00;99.90;;;;;;5033118;28;20026;-75
2023/05/26 02:20:47;;;;;;;5.75;4.43;;;13.00;99.90;;;;;;5033976;28;20025;-75
2023/05/26 02:23:13;;;;;;;6.32;4.53;;;12.90;99.90;;;;;;5015996;28;20108;-75
2023/05/26 02:25:38;;;;;;;6.82;4.57;;;12.90;99.90;;;;;;5033583;28;20045;-76
2023/05/26 02:28:04;;;;;;;6.65;4.75;;;12.70;99.90;;;;;;5033504;28;20653;-75
2023/05/26 02:30:30;;;;;;;6.97;4.40;;;12.60;99.90;;;;;;5015815;28;20484;-75
2023/05/26 02:32:56;;;;;;;6.93;4.65;;;12.60;99.90;;;;;;5015504;28;20441;-75
2023/05/26 02:35:21;;;;;;;5.85;4.47;;;12.60;99.90;;;;;;5033187;28;20470;-75
2023/05/26 02:37:47;;;;;;;10.10;4.35;;;12.60;99.90;;;;;;5032562;28;20409;-74
2023/05/26 02:40:13;;;;;;;7.70;4.45;;;12.50;99.90;;;;;;5015549;28;20025;-75
2023/05/26 02:42:38;;;;;;;7.22;4.97;;;12.50;99.90;;;;;;5033129;28;20028;-75
2023/05/26 02:45:05;;;;;;;15.43;8.15;;;12.40;99.90;;;;;;5032962;28;20017;-75
2023/05/26 02:47:30;;;;;;;16.55;10.00;;;12.40;99.90;;;;;;5015255;28;20037;-75
2023/05/26 02:49:56;;;;;;;15.82;8.32;;;12.40;99.90;;;;;;5033133;28;20033;-75
2023/05/26 02:52:22;;;;;;;17.15;8.63;;;12.40;99.90;;;;;;5015329;28;20075;-75
2023/05/26 02:54:48;;;;;;;11.93;8.25;;;12.40;99.90;;;;;;5032692;28;20032;-75
2023/05/26 02:57:14;;;;;;;14.13;8.10;;;12.30;99.90;;;;;;5032740;28;20026;-75
2023/05/26 02:59:40;;;;;;;11.07;7.13;;;12.40;99.90;;;;;;5032917;28;20040;-75
2023/05/26 03:02:05;;;;;;;9.45;6.18;;;12.40;99.90;;;;;;5032711;28;20021;-75
2023/05/26 03:04:31;;;;;;;9.70;5.13;;;12.30;99.90;;;;;;5014750;28;20521;-74
2023/05/26 03:06:57;;;;;;;10.02;5.88;;;12.30;99.90;;;;;;5014970;28;20076;-75
2023/05/26 03:09:22;;;;;;;8.98;5.60;;;12.30;99.90;;;;;;5014905;28;20025;-75
2023/05/26 03:11:48;;;;;;;6.57;5.25;;;12.30;99.90;;;;;;5014802;28;20033;-75
2023/05/26 03:14:13;;;;;;;6.05;4.90;;;12.20;99.90;;;;;;5032537;28;20034;-75
2023/05/26 03:16:40;;;;;;;6.38;4.47;;;12.20;99.90;;;;;;5014830;28;20032;-77
2023/05/26 03:19:05;;;;;;;5.80;4.45;;;12.20;99.90;;;;;;5032297;28;20024;-75
2023/05/26 03:21:32;;;;;;;8.20;3.80;;;12.10;99.90;;;;;;5032569;28;20445;-75
2023/05/26 03:23:57;;;;;;;9.93;4.10;;;12.20;99.90;;;;;;5031971;28;20026;-75
2023/05/26 03:26:23;;;;;;;5.55;3.75;;;12.20;99.90;;;;;;5031722;28;20168;-75
2023/05/26 03:28:48;;;;;;;5.45;4.22;;;12.20;99.90;;;;;;5031597;28;20100;-75
2023/05/26 03:31:14;;;;;;;5.85;3.92;;;12.20;99.90;;;;;;5032389;28;20552;-75
2023/05/26 03:33:40;;;;;;;8.02;4.72;;;12.30;99.90;;;;;;5014309;28;20029;-75
2023/05/26 03:36:06;;;;;;;6.72;4.57;;;12.20;99.90;;;;;;5032003;28;20031;-75
2023/05/26 03:38:32;;;;;;;6.63;4.10;;;12.20;99.90;;;;;;5031529;28;20482;-75
2023/05/26 03:40:57;;;;;;;8.30;4.43;;;12.30;99.90;;;;;;5032226;28;20060;-75
2023/05/26 03:43:23;;;;;;;7.85;5.32;;;12.30;99.90;;;;;;5014396;28;20025;-75
2023/05/26 03:45:49;;;;;;;7.35;4.47;;;12.40;99.90;;;;;;5031876;28;20033;-75
2023/05/26 03:48:15;;;;;;;8.93;5.18;;;12.50;99.90;;;;;;5031894;28;20067;-75
2023/05/26 03:50:46;;;;;;;7.47;4.88;;;12.50;99.90;;;;;;5014351;28;20079;-75
2023/05/26 03:53:12;;;;;;;12.80;5.10;;;12.50;99.90;;;;;;5031858;28;20021;-74
2023/05/26 03:55:38;;;;;;;8.98;5.95;;;12.50;99.90;;;;;;5014180;28;20080;-75
2023/05/26 03:58:04;;;;;;;7.15;4.95;;;12.60;99.90;;;;;;5031890;28;20423;-75
2023/05/26 04:00:32;;;;;;;11.57;5.40;;;12.60;99.90;;;;;;5032020;28;20359;-75
2023/05/26 04:02:58;;;;;;;7.05;5.20;;;12.60;99.90;;;;;;5031814;28;20025;-75
2023/05/26 04:05:24;;;;;;;6.93;5.07;;;12.70;99.90;;;;;;5031819;28;20017;-74
2023/05/26 04:07:50;;;;;;;7.13;5.03;;;12.80;99.90;;;;;;5031605;28;20032;-74
2023/05/26 04:10:16;;;;;;;7.03;4.90;;;12.90;99.90;;;;;;5031787;28;20049;-75
2023/05/26 04:12:42;;;;;;;6.70;4.88;;;13.00;99.90;;;;;;5014020;28;20494;-75
2023/05/26 04:15:09;;;;;;;10.88;5.85;;;13.00;99.90;;;;;;5080519;23;20040;-76
2023/05/26 04:17:35;;;;;;;5.70;5.15;;;13.10;99.90;;;;;;5092918;28;20054;-75
2023/05/26 04:20:05;;;;;;;10.05;6.00;;;14.70;99.90;;;;;;5073226;28;20027;-75
2023/05/26 04:22:31;;;;;;;12.18;6.05;;;14.90;99.90;;;;;;5076134;28;20380;-73
2023/05/26 04:24:56;;;;;;;9.05;6.18;;;15.50;99.90;;;;;;5092442;28;20031;-76
2023/05/26 04:27:24;;;;;;;10.30;7.05;;;16.10;99.90;;;;;;5073644;28;20484;-76
2023/05/26 04:29:50;;;;;;;14.65;7.68;;;16.60;99.90;;;;;;5092977;28;20051;-76
2023/05/26 04:32:16;;;;;;;9.57;6.82;;;16.60;99.90;;;;;;5092656;28;20032;-76
2023/05/26 04:34:44;;;;;;;7.70;5.53;;;16.60;99.90;;;;;;5092953;28;20103;-76
2023/05/26 04:37:10;;;;;;;6.43;4.97;;;16.60;99.90;;;;;;5074909;28;20110;-76
2023/05/26 04:39:36;;;;;;;6.85;5.05;;;16.70;99.90;;;;;;5075666;28;20050;-77
2023/05/26 04:42:03;;;;;;;10.75;5.05;;;16.50;99.90;;;;;;5096114;28;20051;-76
2023/05/26 04:44:32;;;;;;;7.13;3.58;;;16.70;99.90;;;;;;5077852;28;20073;-77
2023/05/26 04:47:00;;;;;;;5.68;4.22;;;16.80;99.90;;;;;;5096210;28;20020;-76
2023/05/26 04:49:27;;;;;;;5.38;4.20;;;16.50;99.90;;;;;;5077800;28;20027;-76
2023/05/26 04:51:56;;;;;;;5.45;4.55;;;16.50;99.90;;;;;;5096248;28;20027;-75
2023/05/26 04:54:22;;;;;;;4.68;4.15;;;16.60;99.90;;;;;;5095854;28;20057;-76
2023/05/26 04:56:48;;;;;;;7.60;4.55;;;16.70;99.90;;;;;;5077686;28;20024;-76
2023/05/26 04:59:13;;;;;;;6.30;5.00;;;16.80;99.90;;;;;;5096109;28;20031;-76
2023/05/26 05:01:39;;;;;;;8.77;5.53;;;16.80;99.90;;;;;;5097444;28;20050;-77
2023/05/26 05:04:06;;;;;;;7.80;5.00;;;16.50;99.90;;;;;;5097319;28;20047;-77
2023/05/26 05:06:32;;;;;;;27.90;15.00;;;16.30;99.90;;;;;;5099548;28;20476;-77
2023/05/26 05:08:58;;;;;;;6.97;5.18;;;16.10;99.90;;;;;;5080555;28;20039;-77
2023/05/26 05:11:24;;;;;;;10.43;4.43;;;16.00;99.90;;;;;;5099096;28;20107;-77
2023/05/26 05:13:50;;;;;;;8.27;4.22;;;16.00;99.90;;;;;;5081125;28;20028;-77
2023/05/26 05:16:15;;;;;;;8.90;5.53;;;16.00;99.90;;;;;;5081340;28;20085;-77
2023/05/26 05:18:41;;;;;;;7.97;4.97;;;16.00;99.90;;;;;;5098922;28;20032;-77
2023/05/26 05:21:07;;;;;;;8.98;4.85;;;16.10;99.90;;;;;;5097276;28;20080;-77
2023/05/26 05:23:34;;;;;;;6.45;4.57;;;16.30;99.90;;;;;;5099131;28;20097;-77
2023/05/26 05:26:00;;;;;;;6.38;4.78;;;16.40;99.90;;;;;;5098017;28;20404;-76
2023/05/26 05:28:26;;;;;;;7.38;5.05;;;16.50;99.90;;;;;;5081399;28;20024;-75
2023/05/26 05:30:51;;;;;;;8.88;5.50;;;16.70;99.90;;;;;;5098863;28;20034;-77
2023/05/26 05:33:17;;;;;;;9.23;4.32;;;16.80;99.90;;;;;;5080452;28;20028;-77
2023/05/26 05:35:45;;;;;;;7.57;4.80;;;17.10;99.90;;;;;;5097990;28;20106;-77
2023/05/26 05:38:11;;;;;;;7.18;4.90;;;17.10;99.90;;;;;;5098462;28;20024;-77
2023/05/26 05:40:36;;;;;;;7.57;4.40;;;17.20;99.90;;;;;;5081470;28;20024;-76
2023/05/26 05:43:02;;;;;;;6.80;4.65;;;17.40;99.90;;;;;;5099395;28;20017;-77
2023/05/26 05:45:28;;;;;;;5.75;4.50;;;17.60;99.90;;;;;;5099362;28;20442;-77
2023/05/26 05:47:53;;;;;;;7.30;4.88;;;17.80;99.90;;;;;;5099754;28;20028;-77
2023/05/26 05:50:19;;;;;;;6.43;4.93;;;17.90;99.90;;;;;;5099670;28;20034;-77
2023/05/26 05:52:45;;;;;;;9.05;4.82;;;18.10;99.90;;;;;;5099102;28;20051;-76
2023/05/26 05:55:11;;;;;;;5.20;4.55;;;18.30;99.90;;;;;;5099699;28;20032;-77
2023/05/26 05:57:36;;;;;;;7.70;4.15;;;18.40;99.90;;;;;;5100569;28;20042;-77
2023/05/26 06:00:05;;;;;;;9.02;5.20;;;18.70;99.90;;;;;;5082125;28;20024;-77
2023/05/26 06:02:31;;;;;;;6.57;4.13;;;18.70;99.90;;;;;;5082217;28;20024;-77
2023/05/26 06:04:57;;;;;;;6.00;4.63;;;18.90;99.90;;;;;;5098642;28;20065;-77
2023/05/26 06:07:22;;;;;;;9.75;4.07;;;19.00;99.90;;;;;;5097735;28;20031;-77
2023/05/26 06:09:48;;;;;;;4.65;3.78;;;19.20;99.90;;;;;;5099224;28;20035;-77
2023/05/26 06:12:13;;;;;;;5.38;3.13;;;19.40;99.90;;;;;;5099382;28;20023;-76
2023/05/26 06:14:39;;;;;;;4.32;3.03;;;19.40;99.90;;;;;;5080589;28;20412;-77
2023/05/26 06:17:05;;;;;;;4.68;3.28;;;19.50;99.40;;;;;;5079809;28;20480;-76
2023/05/26 06:19:33;;;;;;;4.80;3.30;;;19.60;99.00;;;;;;5098230;28;20017;-77
2023/05/26 06:21:59;;;;;;;6.78;4.18;;;19.70;99.90;;;;;;5102707;28;20395;-78
2023/05/26 06:24:25;;;;;;;4.05;3.17;;;19.90;99.70;;;;;;5100946;28;20043;-78
2023/05/26 06:26:50;;;;;;;3.58;3.03;;;20.10;97.60;;;;;;5080861;28;20027;-78
2023/05/26 06:29:16;;;;;;;8.65;3.33;;;20.20;94.80;;;;;;5098769;28;20028;-77
2023/05/26 06:31:43;;;;;;;6.40;3.35;;;20.20;93.80;;;;;;5079631;28;20020;-77
2023/05/26 06:34:08;;;;;;;5.90;3.58;;;20.30;93.20;;;;;;5080078;28;20044;-77
2023/05/26 06:36:35;;;;;;;4.50;2.85;;;20.40;92.00;;;;;;5098167;28;20085;-77
2023/05/26 06:39:01;;;;;;;4.43;2.85;;;20.60;91.70;;;;;;5099231;28;20479;-77
2023/05/26 06:41:27;;;;;;;4.43;2.30;;;20.50;90.80;;;;;;5078691;28;20104;-77
2023/05/26 06:43:53;;;;;;;4.25;2.85;;;20.60;91.00;;;;;;5078254;28;20024;-76
2023/05/26 06:46:18;;;;;;;2.78;2.55;;;20.60;92.30;;;;;;5097573;28;20027;-76
2023/05/26 06:48:44;;;;;;;3.45;2.60;;;20.80;90.90;;;;;;5080047;28;20101;-77
2023/05/26 06:51:10;;;;;;;3.30;2.30;;;20.90;86.00;;;;;;5080072;28;20103;-77
2023/05/26 06:53:37;;;;;;;3.67;2.78;;;21.00;87.40;;;;;;5081237;28;20031;-77
2023/05/26 06:56:03;;;;;;;3.33;2.33;;;21.10;84.90;;;;;;5080467;28;20028;-77
2023/05/26 06:58:29;;;;;;;5.25;2.70;;;21.20;84.80;;;;;;5098000;28;20043;-76
2023/05/26 07:01:04;;;;;;;3.88;2.67;;;21.30;85.50;;;;;;5098500;28;20016;-77
2023/05/26 07:03:30;;;;;;;4.50;2.15;;;21.40;83.50;;;;;;5079196;28;20016;-77
2023/05/26 07:05:56;;;;;;;3.67;2.58;;;21.30;83.30;;;;;;5080328;28;20081;-77
2023/05/26 07:08:23;;;;;;;5.00;2.50;;;21.50;84.10;;;;;;5080787;28;20029;-78
2023/05/26 07:10:49;;;;;;;2.88;2.42;;;21.50;79.80;;;;;;5076960;28;20028;-77
2023/05/26 07:13:15;;;;;;;4.45;2.30;;;21.80;82.60;;;;;;5092536;28;20027;-76
2023/05/26 07:15:42;;;;;;;7.38;2.70;;;22.00;79.60;;;;;;5092611;28;20477;-76
2023/05/26 07:18:08;;;;;;;4.38;3.00;;;21.80;79.40;;;;;;5093291;28;20535;-78
2023/05/26 07:20:33;;;;;;;4.55;2.47;;;22.00;80.00;;;;;;5098997;28;20085;-77
2023/05/26 07:22:59;;;;;;;6.25;2.67;;;22.10;77.10;;;;;;5078667;28;20576;-76
2023/05/26 07:25:25;;;;;;;5.03;2.70;;;22.10;75.30;;;;;;5096822;28;20027;-79
2023/05/26 07:27:51;;;;;;;3.13;2.15;;;22.20;76.40;;;;;;5096550;28;20481;-78
2023/05/26 07:30:18;;;;;;;2.58;2.13;;;22.20;75.50;;;;;;5078888;28;20088;-78
2023/05/26 07:32:43;;;;;;;4.35;2.55;;;22.00;74.70;;;;;;5097335;28;20034;-78
2023/05/26 07:35:09;;;;;;;4.72;2.42;;;22.00;74.80;;;;;;5096769;28;20102;-79
2023/05/26 07:37:35;;;;;;;2.60;2.13;;;22.30;75.20;;;;;;5096560;28;20472;-78
2023/05/26 07:40:03;;;;;;;7.40;3.00;;;22.40;73.70;;;;;;5079312;28;20087;-78
2023/05/26 07:42:28;;;;;;;3.67;2.10;;;22.30;75.70;;;;;;5080346;28;20396;-77
2023/05/26 07:44:55;;;;;;;6.28;2.38;;;22.40;74.60;;;;;;5096792;28;20085;-78
2023/05/26 07:47:21;;;;;;;4.18;2.75;;;22.60;76.80;;;;;;5096624;28;20020;-78
2023/05/26 07:49:47;;;;;;;5.20;2.92;;;22.70;75.70;;;;;;5077755;28;20027;-79
2023/05/26 07:52:13;;;;;;;5.03;2.70;;;22.80;75.80;;;;;;5096340;28;20028;-78
2023/05/26 07:54:39;;;;;;;3.55;2.28;;;22.80;73.60;;;;;;5088682;28;20024;-76
2023/05/26 07:57:05;;;;;;;5.78;3.03;;;22.80;73.80;;;;;;5094455;28;20031;-78
2023/05/26 07:59:30;;;;;;;3.10;2.25;;;22.90;73.70;;;;;;5076969;28;20045;-78
2023/05/26 08:01:56;;;;;;;3.22;2.20;;;22.90;75.10;;;;;;5077542;28;20024;-78
2023/05/26 08:04:22;;;;;;;3.75;2.85;;;22.80;71.90;;;;;;5095516;28;20027;-77
2023/05/26 08:06:47;;;;;;;6.50;3.08;;;22.80;72.30;;;;;;5078355;28;20024;-78
2023/05/26 08:09:13;;;;;;;3.03;2.42;;;22.90;71.50;;;;;;5078878;28;20016;-78
2023/05/26 08:11:39;;;;;;;5.90;2.20;;;22.80;71.20;;;;;;5096772;28;20225;-78
2023/05/26 08:14:04;;;;;;;6.68;2.63;;;22.80;70.50;;;;;;5096780;28;20036;-79
2023/05/26 08:16:30;;;;;;;4.75;2.90;;;23.00;72.30;;;;;;5096129;28;20020;-78
2023/05/26 08:18:55;;;;;;;2.42;1.83;;;23.10;68.60;;;;;;5095136;28;20027;-78
2023/05/26 08:21:21;;;;;;;3.78;2.35;;;22.80;69.70;;;;;;5092776;28;20051;-78
2023/05/26 08:23:47;;;;;;;4.03;2.88;;;23.00;69.80;;;;;;5095117;28;20428;-78
2023/05/26 08:26:12;;;;;;;6.95;2.85;;;23.20;70.60;;;;;;5095114;28;20020;-78
2023/05/26 08:28:38;;;;;;;5.07;2.78;;;23.20;68.20;;;;;;5095948;28;20032;-78
2023/05/26 08:31:05;;;;;;;3.58;2.17;;;23.30;68.70;;;;;;5077126;28;20077;-77
2023/05/26 08:33:31;;;;;;;4.75;2.58;;;23.30;68.50;;;;;;5094761;28;20020;-77
2023/05/26 08:35:56;;;;;;;4.03;2.45;;;23.40;68.80;;;;;;5076624;28;20032;-78
2023/05/26 08:38:22;;;;;;;3.00;2.35;;;23.30;66.00;;;;;;5094788;28;20028;-77
2023/05/26 08:40:51;;;;;;;7.57;2.05;;;23.40;67.90;;;;;;5094453;28;20031;-78
2023/05/26 08:43:19;;;;;;;3.53;2.80;;;23.60;68.10;;;;;;5093900;28;20027;-77
2023/05/26 08:45:46;;;;;;;7.22;2.65;;;23.60;66.80;;;;;;5092329;28;20028;-76
2023/05/26 08:48:11;;;;;;;4.30;2.20;;;23.60;64.60;;;;;;5093247;28;20047;-77
2023/05/26 08:50:37;;;;;;;4.07;2.15;;;23.50;67.30;;;;;;5075196;28;20476;-77
2023/05/26 08:53:04;;;;;;;5.10;2.55;;;23.60;65.50;;;;;;5075179;28;20511;-78
2023/05/26 08:55:32;;;;;;;3.67;2.33;;;23.40;66.40;;;;;;5093457;28;20031;-77
2023/05/26 08:57:59;;;;;;;5.75;2.13;;;23.40;66.70;;;;;;5075410;28;20097;-77
2023/05/26 09:00:29;;;;;;;5.50;3.58;;;23.40;66.40;;;;;;5073504;28;20027;-75
2023/05/26 09:02:55;;;;;;;4.70;2.20;;;23.50;63.70;;;;;;5072923;28;20032;-74
2023/05/26 09:05:22;;;;;;;4.72;2.83;;;23.70;64.10;;;;;;5073193;28;20028;-76
2023/05/26 09:07:47;;;;;;;4.55;2.72;;;23.60;64.70;;;;;;5073267;28;20031;-76
2023/05/26 09:10:45;;;;;;;3.25;2.33;;;23.80;64.90;;;;;;5091479;28;20395;-76
2023/05/26 09:13:14;;;;;;;4.88;2.22;;;23.70;61.90;;;;;;5035862;28;20115;-77
2023/05/26 09:15:40;;;;;;;3.10;2.15;;;23.80;63.20;;;;;;5091410;28;20032;-75
2023/05/26 09:18:07;;;;;;;2.60;1.92;;;23.70;63.40;;;;;;5073232;28;20526;-75
2023/05/26 09:20:38;;;;;;;4.50;2.10;;;23.80;62.00;;;;;;5091415;28;20020;-75
2023/05/26 09:23:03;;;;;;;8.15;2.40;;;24.00;65.30;;;;;;5091413;28;20055;-74
2023/05/26 09:25:43;;;;;;;3.25;2.40;;;24.00;61.60;;;;;;5091216;28;20021;-76
2023/05/26 09:28:11;;;;;;;4.32;2.42;;;23.90;61.70;;;;;;5094199;28;20028;-77
2023/05/26 09:30:45;;;;;;;3.38;2.05;;;24.10;61.80;;;;;;5077011;28;20031;-76
2023/05/26 09:33:13;;;;;;;4.40;2.05;;;24.00;59.80;;;;;;5076976;28;20557;-76
2023/05/26 09:35:41;;;;;;;3.33;2.35;;;23.80;58.70;;;;;;5094828;28;20058;-76
2023/05/26 09:38:09;;;;;;;7.25;2.90;;;23.90;60.20;;;;;;5094786;28;20024;-76
2023/05/26 09:40:39;;;;;;;4.55;2.10;;;24.00;60.90;;;;;;5095424;28;20056;-75
2023/05/26 09:43:05;;;;;;;4.82;2.97;;;24.20;59.30;;;;;;5077638;28;20057;-76
2023/05/26 09:45:35;;;;;;;2.70;2.30;;;24.20;58.50;;;;;;5095640;28;20124;-75
2023/05/26 09:48:06;;;;;;;2.25;1.73;;;24.30;58.90;;;;;;5077716;28;20028;-76
2023/05/26 09:50:36;;;;;;;3.60;2.05;;;24.40;59.20;;;;;;5095399;28;20024;-76
2023/05/26 09:53:05;;;;;;;3.50;2.40;;;24.50;56.20;;;;;;5076883;28;20027;-76
2023/05/26 09:55:32;;;;;;;3.33;2.15;;;24.40;57.70;;;;;;5094871;28;20020;-76
2023/05/26 09:58:09;;;;;;;3.35;2.47;;;24.40;57.50;;;;;;5094512;28;20024;-76
2023/05/26 10:00:36;;;;;;;5.50;2.42;;;24.20;58.20;;;;;;5095343;28;20031;-76
2023/05/26 10:03:06;;;;;;;3.40;2.33;;;24.30;59.70;;;;;;5095293;28;20020;-76
2023/05/26 10:05:47;;;;;;;8.15;2.40;;;24.50;57.90;;;;;;5094970;28;20490;-76
2023/05/26 10:08:18;;;;;;;3.50;2.28;;;24.30;57.90;;;;;;5094566;28;20032;-76
2023/05/26 10:10:46;;;;;;;3.67;2.35;;;24.20;55.40;;;;;;5094614;28;20099;-76
2023/05/26 10:13:12;;;;;;;3.28;1.90;;;24.30;58.00;;;;;;5077565;28;20401;-76
2023/05/26 10:15:38;;;;;;;3.60;1.98;;;24.30;56.50;;;;;;5063291;22;20047;-76
2023/05/26 10:18:04;;;;;;;4.15;2.33;;;24.40;58.30;;;;;;5034360;28;20022;-76
2023/05/26 10:20:30;;;;;;;3.55;2.58;;;24.40;57.30;;;;;;5035042;28;20397;-77
2023/05/26 10:23:21;;;;;;;7.60;2.53;;;24.50;58.90;;;;;;5033367;28;20021;-77
2023/05/26 10:26:03;;;;;;;5.20;3.42;;;24.70;59.30;;;;;;5026262;28;20117;-77
2023/05/26 10:28:49;;;;;;;6.95;2.90;;;24.80;59.60;;;;;;5034118;28;20410;-76
2023/05/26 10:31:36;;;;;;;3.78;2.58;;;24.90;57.20;;;;;;5033624;28;20025;-76
2023/05/26 10:34:34;;;;;;;3.72;2.45;;;24.80;54.70;;;;;;5033458;28;20105;-77
2023/05/26 10:37:11;;;;;;;3.00;2.30;;;24.70;54.60;;;;;;5015075;28;20036;-76
2023/05/26 10:39:37;;;;;;;2.50;2.22;;;24.70;54.90;;;;;;5015460;28;20025;-76
2023/05/26 10:42:15;;;;;;;3.95;2.20;;;24.60;55.30;;;;;;5015637;28;20028;-77
2023/05/26 10:44:43;;;;;;;3.63;1.95;;;24.70;52.50;;;;;;5015396;28;20021;-76
2023/05/26 10:47:14;;;;;;;2.88;2.20;;;24.40;53.40;;;;;;5033444;28;20371;-76
2023/05/26 10:49:40;;;;;;;3.20;2.05;;;24.80;53.70;;;;;;5033289;28;20013;-77
2023/05/26 10:52:13;;;;;;;4.03;2.55;;;24.90;53.80;;;;;;5033323;28;20032;-76
2023/05/26 10:54:40;;;;;;;4.45;2.80;;;25.10;53.30;;;;;;5015265;28;20083;-77
2023/05/26 10:57:26;;;;;;;3.95;2.65;;;25.00;53.90;;;;;;5015558;28;20398;-77
2023/05/26 10:59:53;;;;;;;3.35;2.10;;;25.10;53.60;;;;;;5032937;28;20026;-77
2023/05/26 11:02:20;;;;;;;5.30;2.97;;;25.10;50.20;;;;;;5031716;28;20064;-77
2023/05/26 11:04:48;;;;;;;5.10;3.00;;;25.10;53.30;;;;;;5032697;28;20018;-76
2023/05/26 11:07:26;;;;;;;3.65;2.60;;;25.10;52.00;;;;;;5014926;28;20030;-77
2023/05/26 11:10:06;;;;;;;3.72;2.47;;;25.00;51.90;;;;;;5032593;28;20025;-77
2023/05/26 11:12:54;;;;;;;3.17;2.38;;;25.20;49.40;;;;;;5014636;28;20029;-76
2023/05/26 11:15:33;;;;;;;6.35;2.35;;;25.50;50.50;;;;;;5014390;28;20106;-76
2023/05/26 11:18:08;;;;;;;3.83;2.50;;;25.60;50.70;;;;;;5013348;28;20051;-77
2023/05/26 11:20:34;;;;;;;2.35;1.92;;;25.80;50.00;;;;;;5032632;28;20025;-77
2023/05/26 11:23:00;;;;;;;4.68;2.38;;;25.80;50.00;;;;;;5015015;28;20518;-78
2023/05/26 11:25:27;;;;;;;2.10;1.90;;;25.80;49.10;;;;;;5014745;28;20053;-77
2023/05/26 11:27:52;;;;;;;4.63;2.80;;;25.60;50.60;;;;;;5014898;28;20076;-78
2023/05/26 11:30:19;;;;;;;3.25;2.47;;;25.50;50.80;;;;;;5013174;28;20030;-77
2023/05/26 11:32:49;;;;;;;2.90;2.28;;;25.70;52.00;;;;;;5031156;28;20445;-77
2023/05/26 11:35:28;;;;;;;2.58;2.15;;;25.80;53.00;;;;;;5032891;28;20030;-78
2023/05/26 11:37:55;;;;;;;3.05;2.45;;;25.80;50.60;;;;;;5031206;28;20497;-78
2023/05/26 11:40:21;;;;;;;2.75;2.25;;;25.60;50.70;;;;;;5012672;28;20026;-76
2023/05/26 11:42:52;;;;;;;3.30;2.22;;;25.10;51.10;;;;;;5031750;28;20049;-77
2023/05/26 11:45:18;;;;;;;5.13;2.22;;;25.10;52.70;;;;;;5014319;28;20508;-77
2023/05/26 11:47:44;;;;;;;3.25;2.20;;;25.00;53.30;;;;;;5031797;28;20056;-77
2023/05/26 11:50:11;;;;;;;5.43;2.47;;;25.10;53.00;;;;;;5014011;28;20029;-76
2023/05/26 11:52:47;;;;;;;4.88;2.47;;;25.30;52.10;;;;;;5032112;28;20454;-76
2023/05/26 11:55:14;;;;;;;4.20;2.22;;;25.20;53.00;;;;;;5031925;28;20108;-76
2023/05/26 11:57:42;;;;;;;3.50;2.00;;;25.20;53.20;;;;;;5031861;28;20021;-77
2023/05/26 12:00:14;;;;;;;3.13;2.20;;;25.20;53.90;;;;;;5031968;28;20563;-77
2023/05/26 12:02:40;;;;;;;3.38;2.45;;;25.40;54.10;;;;;;5014272;28;20025;-77
2023/05/26 12:05:29;;;;;;;4.78;1.80;;;25.60;52.40;;;;;;5031900;28;20045;-76
2023/05/26 12:08:02;;;;;;;3.55;2.10;;;25.80;52.90;;;;;;5014155;28;20161;-77
2023/05/26 12:10:29;;;;;;;2.70;2.03;;;25.70;51.60;;;;;;5031848;28;20048;-77
2023/05/26 12:12:55;;;;;;;3.63;2.83;;;25.80;52.20;;;;;;5031855;28;20386;-77
2023/05/26 12:15:23;;;;;;;4.20;2.72;;;25.90;53.60;;;;;;5013889;28;20033;-77
2023/05/26 12:17:51;;;;;;;2.67;2.25;;;25.60;53.00;;;;;;5031731;28;20386;-77
2023/05/26 12:20:24;;;;;;;4.88;2.45;;;25.60;54.00;;;;;;5031768;28;20017;-77
2023/05/26 12:23:01;;;;;;;3.70;2.45;;;25.60;53.70;;;;;;5031725;28;20034;-77
2023/05/26 12:25:29;;;;;;;3.33;2.08;;;25.60;52.80;;;;;;5013927;28;20064;-77
2023/05/26 12:27:54;;;;;;;2.70;2.17;;;25.50;53.10;;;;;;5013890;28;20026;-77
2023/05/26 12:30:22;;;;;;;3.67;2.42;;;25.40;53.70;;;;;;5031827;28;20367;-77
2023/05/26 12:32:48;;;;;;;3.08;2.55;;;25.60;54.50;;;;;;5031737;28;20029;-77
2023/05/26 12:35:15;;;;;;;3.50;2.42;;;25.60;53.60;;;;;;5013791;28;20394;-77
2023/05/26 12:37:42;;;;;;;3.28;2.60;;;25.50;54.90;;;;;;5031469;28;20033;-76
2023/05/26 12:40:08;;;;;;;7.28;2.50;;;25.40;55.20;;;;;;5031742;28;20041;-77
2023/05/26 12:42:35;;;;;;;4.15;2.97;;;25.40;55.80;;;;;;5031634;28;20029;-76
2023/05/26 12:45:01;;;;;;;4.57;2.33;;;25.50;55.80;;;;;;5031547;28;20103;-76
2023/05/26 12:47:26;;;;;;;3.90;2.60;;;25.70;54.50;;;;;;5031218;28;20440;-76
2023/05/26 12:49:52;;;;;;;4.50;2.15;;;25.50;54.60;;;;;;5013879;28;20025;-77